sensor_id;sensor_type;location;lat;lon;timestamp;P1;durP1;ratioP1;P2;durP2;ratioP2
4517;SDS011;2271;49.464;11.070;2023-12-07T00:01:19;17.27;;;10.57;;
4517;SDS011;2271;49.464;11.070;2023-12-07T00:03:44;18.30;;;12.13;;
4517;SDS011;2271;49.464;11.070;2023-12-07T00:06:10;15.10;;;10.50;;
4517;SDS011;2271;49.464;11.070;2023-12-07T00:08:36;14.13;;;10.50;;
4517;SDS011;2271;49.464;11.070;2023-12-07T00:11:01;16.03;;;10.27;;
4517;SDS011;2271;49.464;11.070;2023-12-07T00:13:27;13.53;;;9.83;;
4517;SDS011;2271;49.464;11.070;2023-12-07T00:15:53;14.93;;;10.50;;
4517;SDS011;2271;49.464;11.070;2023-12-07T00:18:18;13.83;;;10.37;;
4517;SDS011;2271;49.464;11.070;2023-12-07T00:20:44;16.17;;;10.43;;
4517;SDS011;2271;49.464;11.070;2023-12-07T00:23:10;15.67;;;10.40;;
4517;SDS011;2271;49.464;11.070;2023-12-07T00:25:36;13.63;;;9.90;;
4517;SDS011;2271;49.464;11.070;2023-12-07T00:28:02;13.77;;;9.57;;
4517;SDS011;2271;49.464;11.070;2023-12-07T00:30:28;14.80;;;9.90;;
4517;SDS011;2271;49.464;11.070;2023-12-07T00:32:54;13.53;;;9.43;;
4517;SDS011;2271;49.464;11.070;2023-12-07T00:35:20;14.33;;;9.97;;
4517;SDS011;2271;49.464;11.070;2023-12-07T00:37:47;17.90;;;10.33;;
4517;SDS011;2271;49.464;11.070;2023-12-07T00:40:13;13.40;;;9.87;;
4517;SDS011;2271;49.464;11.070;2023-12-07T00:42:39;18.53;;;10.63;;
4517;SDS011;2271;49.464;11.070;2023-12-07T00:45:05;15.67;;;9.83;;
4517;SDS011;2271;49.464;11.070;2023-12-07T00:47:30;13.83;;;10.63;;
4517;SDS011;2271;49.464;11.070;2023-12-07T00:49:56;13.87;;;9.10;;
4517;SDS011;2271;49.464;11.070;2023-12-07T00:52:22;14.20;;;9.27;;
4517;SDS011;2271;49.464;11.070;2023-12-07T00:54:47;16.07;;;11.10;;
4517;SDS011;2271;49.464;11.070;2023-12-07T00:57:13;13.43;;;10.03;;
4517;SDS011;2271;49.464;11.070;2023-12-07T00:59:38;14.33;;;9.97;;
4517;SDS011;2271;49.464;11.070;2023-12-07T01:02:04;15.40;;;9.23;;
4517;SDS011;2271;49.464;11.070;2023-12-07T01:04:30;13.37;;;8.77;;
4517;SDS011;2271;49.464;11.070;2023-12-07T01:06:56;13.33;;;10.10;;
4517;SDS011;2271;49.464;11.070;2023-12-07T01:09:22;13.40;;;9.37;;
4517;SDS011;2271;49.464;11.070;2023-12-07T01:11:48;11.93;;;9.43;;
4517;SDS011;2271;49.464;11.070;2023-12-07T01:14:14;14.90;;;10.13;;
4517;SDS011;2271;49.464;11.070;2023-12-07T01:16:40;14.37;;;9.67;;
4517;SDS011;2271;49.464;11.070;2023-12-07T01:19:06;12.47;;;8.87;;
4517;SDS011;2271;49.464;11.070;2023-12-07T01:21:32;15.43;;;9.97;;
4517;SDS011;2271;49.464;11.070;2023-12-07T01:23:58;16.07;;;9.23;;
4517;SDS011;2271;49.464;11.070;2023-12-07T01:26:24;16.77;;;10.00;;
4517;SDS011;2271;49.464;11.070;2023-12-07T01:28:50;19.43;;;10.50;;
4517;SDS011;2271;49.464;11.070;2023-12-07T01:31:16;14.83;;;9.37;;
4517;SDS011;2271;49.464;11.070;2023-12-07T01:33:42;14.30;;;9.07;;
4517;SDS011;2271;49.464;11.070;2023-12-07T01:36:08;13.73;;;9.60;;
4517;SDS011;2271;49.464;11.070;2023-12-07T01:38:34;13.17;;;8.87;;
4517;SDS011;2271;49.464;11.070;2023-12-07T01:40:59;14.20;;;9.33;;
4517;SDS011;2271;49.464;11.070;2023-12-07T01:43:25;12.27;;;8.07;;
4517;SDS011;2271;49.464;11.070;2023-12-07T01:45:51;13.43;;;9.20;;
4517;SDS011;2271;49.464;11.070;2023-12-07T01:48:21;15.03;;;9.97;;
4517;SDS011;2271;49.464;11.070;2023-12-07T01:50:48;15.50;;;10.33;;
4517;SDS011;2271;49.464;11.070;2023-12-07T01:53:15;14.93;;;9.23;;
4517;SDS011;2271;49.464;11.070;2023-12-07T01:55:41;14.30;;;9.47;;
4517;SDS011;2271;49.464;11.070;2023-12-07T01:58:07;15.53;;;9.83;;
4517;SDS011;2271;49.464;11.070;2023-12-07T02:00:33;13.57;;;10.43;;
4517;SDS011;2271;49.464;11.070;2023-12-07T02:03:00;13.57;;;9.23;;
4517;SDS011;2271;49.464;11.070;2023-12-07T02:05:27;13.23;;;8.80;;
4517;SDS011;2271;49.464;11.070;2023-12-07T02:07:53;12.53;;;9.23;;
4517;SDS011;2271;49.464;11.070;2023-12-07T02:10:19;14.40;;;9.77;;
4517;SDS011;2271;49.464;11.070;2023-12-07T02:12:45;17.10;;;10.23;;
4517;SDS011;2271;49.464;11.070;2023-12-07T02:15:12;13.70;;;9.30;;
4517;SDS011;2271;49.464;11.070;2023-12-07T02:20:26;12.50;;;9.10;;
4517;SDS011;2271;49.464;11.070;2023-12-07T02:22:55;13.80;;;9.00;;
4517;SDS011;2271;49.464;11.070;2023-12-07T02:25:40;11.67;;;8.67;;
4517;SDS011;2271;49.464;11.070;2023-12-07T02:28:15;12.07;;;9.27;;
4517;SDS011;2271;49.464;11.070;2023-12-07T02:30:40;13.37;;;9.27;;
4517;SDS011;2271;49.464;11.070;2023-12-07T02:33:06;10.90;;;8.00;;
4517;SDS011;2271;49.464;11.070;2023-12-07T02:35:31;14.00;;;9.10;;
4517;SDS011;2271;49.464;11.070;2023-12-07T02:37:58;12.97;;;9.03;;
4517;SDS011;2271;49.464;11.070;2023-12-07T02:40:25;12.27;;;8.43;;
4517;SDS011;2271;49.464;11.070;2023-12-07T02:42:52;12.97;;;8.83;;
4517;SDS011;2271;49.464;11.070;2023-12-07T02:45:19;12.10;;;8.70;;
4517;SDS011;2271;49.464;11.070;2023-12-07T02:47:44;12.67;;;9.00;;
4517;SDS011;2271;49.464;11.070;2023-12-07T02:50:10;11.80;;;8.60;;
4517;SDS011;2271;49.464;11.070;2023-12-07T02:52:36;12.20;;;8.27;;
4517;SDS011;2271;49.464;11.070;2023-12-07T02:55:03;13.07;;;8.13;;
4517;SDS011;2271;49.464;11.070;2023-12-07T02:57:29;11.60;;;8.23;;
4517;SDS011;2271;49.464;11.070;2023-12-07T02:59:55;10.90;;;8.47;;
4517;SDS011;2271;49.464;11.070;2023-12-07T03:02:21;10.87;;;8.10;;
4517;SDS011;2271;49.464;11.070;2023-12-07T03:04:47;12.13;;;8.23;;
4517;SDS011;2271;49.464;11.070;2023-12-07T03:07:13;13.57;;;9.57;;
4517;SDS011;2271;49.464;11.070;2023-12-07T03:09:39;13.27;;;9.17;;
4517;SDS011;2271;49.464;11.070;2023-12-07T03:12:05;14.67;;;8.00;;
4517;SDS011;2271;49.464;11.070;2023-12-07T03:14:31;10.80;;;8.00;;
4517;SDS011;2271;49.464;11.070;2023-12-07T03:16:57;14.47;;;8.43;;
4517;SDS011;2271;49.464;11.070;2023-12-07T03:19:23;11.97;;;8.40;;
4517;SDS011;2271;49.464;11.070;2023-12-07T03:21:48;10.50;;;8.17;;
4517;SDS011;2271;49.464;11.070;2023-12-07T03:24:14;14.50;;;8.93;;
4517;SDS011;2271;49.464;11.070;2023-12-07T03:26:40;11.90;;;8.30;;
4517;SDS011;2271;49.464;11.070;2023-12-07T03:29:07;11.87;;;8.87;;
4517;SDS011;2271;49.464;11.070;2023-12-07T03:31:32;13.40;;;8.37;;
4517;SDS011;2271;49.464;11.070;2023-12-07T03:33:58;12.80;;;8.37;;
4517;SDS011;2271;49.464;11.070;2023-12-07T03:36:26;11.87;;;8.17;;
4517;SDS011;2271;49.464;11.070;2023-12-07T03:38:52;13.13;;;8.60;;
4517;SDS011;2271;49.464;11.070;2023-12-07T03:41:17;13.13;;;8.07;;
4517;SDS011;2271;49.464;11.070;2023-12-07T03:43:43;13.80;;;8.63;;
4517;SDS011;2271;49.464;11.070;2023-12-07T03:46:09;16.33;;;9.37;;
4517;SDS011;2271;49.464;11.070;2023-12-07T03:48:35;12.30;;;9.10;;
4517;SDS011;2271;49.464;11.070;2023-12-07T03:51:02;13.33;;;8.00;;
4517;SDS011;2271;49.464;11.070;2023-12-07T03:53:28;13.30;;;9.47;;
4517;SDS011;2271;49.464;11.070;2023-12-07T03:55:53;14.67;;;9.33;;
4517;SDS011;2271;49.464;11.070;2023-12-07T03:58:20;15.33;;;10.17;;
4517;SDS011;2271;49.464;11.070;2023-12-07T04:00:45;12.00;;;8.40;;
4517;SDS011;2271;49.464;11.070;2023-12-07T04:03:11;15.17;;;10.50;;
4517;SDS011;2271;49.464;11.070;2023-12-07T04:05:37;13.53;;;9.17;;
4517;SDS011;2271;49.464;11.070;2023-12-07T04:08:03;18.10;;;10.00;;
4517;SDS011;2271;49.464;11.070;2023-12-07T04:10:31;13.77;;;10.43;;
4517;SDS011;2271;49.464;11.070;2023-12-07T04:12:57;17.57;;;10.90;;
4517;SDS011;2271;49.464;11.070;2023-12-07T04:15:23;14.90;;;10.43;;
4517;SDS011;2271;49.464;11.070;2023-12-07T04:17:48;14.37;;;11.17;;
4517;SDS011;2271;49.464;11.070;2023-12-07T04:20:14;15.80;;;10.60;;
4517;SDS011;2271;49.464;11.070;2023-12-07T04:22:40;16.80;;;10.60;;
4517;SDS011;2271;49.464;11.070;2023-12-07T04:25:06;16.63;;;10.33;;
4517;SDS011;2271;49.464;11.070;2023-12-07T04:27:33;16.23;;;10.03;;
4517;SDS011;2271;49.464;11.070;2023-12-07T04:29:59;15.87;;;10.53;;
4517;SDS011;2271;49.464;11.070;2023-12-07T04:32:24;16.67;;;11.37;;
4517;SDS011;2271;49.464;11.070;2023-12-07T04:34:50;14.43;;;10.30;;
4517;SDS011;2271;49.464;11.070;2023-12-07T04:37:17;15.57;;;11.70;;
4517;SDS011;2271;49.464;11.070;2023-12-07T04:39:42;16.60;;;11.00;;
4517;SDS011;2271;49.464;11.070;2023-12-07T04:42:08;17.30;;;11.93;;
4517;SDS011;2271;49.464;11.070;2023-12-07T04:44:34;16.53;;;11.10;;
4517;SDS011;2271;49.464;11.070;2023-12-07T04:46:59;18.77;;;11.03;;
4517;SDS011;2271;49.464;11.070;2023-12-07T04:49:25;22.17;;;11.57;;
4517;SDS011;2271;49.464;11.070;2023-12-07T04:51:50;18.83;;;11.83;;
4517;SDS011;2271;49.464;11.070;2023-12-07T04:54:16;20.67;;;12.93;;
4517;SDS011;2271;49.464;11.070;2023-12-07T04:56:42;20.07;;;11.30;;
4517;SDS011;2271;49.464;11.070;2023-12-07T04:59:08;17.87;;;11.40;;
4517;SDS011;2271;49.464;11.070;2023-12-07T05:01:37;17.27;;;12.27;;
4517;SDS011;2271;49.464;11.070;2023-12-07T05:04:03;15.77;;;11.90;;
4517;SDS011;2271;49.464;11.070;2023-12-07T05:06:33;20.07;;;12.83;;
4517;SDS011;2271;49.464;11.070;2023-12-07T05:08:59;19.93;;;11.80;;
4517;SDS011;2271;49.464;11.070;2023-12-07T05:11:25;23.00;;;13.30;;
4517;SDS011;2271;49.464;11.070;2023-12-07T05:13:51;19.07;;;12.30;;
4517;SDS011;2271;49.464;11.070;2023-12-07T05:16:17;18.23;;;12.30;;
4517;SDS011;2271;49.464;11.070;2023-12-07T05:18:42;17.13;;;12.40;;
4517;SDS011;2271;49.464;11.070;2023-12-07T05:21:09;18.67;;;11.97;;
4517;SDS011;2271;49.464;11.070;2023-12-07T05:23:34;18.10;;;11.93;;
4517;SDS011;2271;49.464;11.070;2023-12-07T05:26:00;23.23;;;12.10;;
4517;SDS011;2271;49.464;11.070;2023-12-07T05:28:26;21.90;;;12.80;;
4517;SDS011;2271;49.464;11.070;2023-12-07T05:30:51;20.13;;;12.90;;
4517;SDS011;2271;49.464;11.070;2023-12-07T05:33:18;22.07;;;13.40;;
4517;SDS011;2271;49.464;11.070;2023-12-07T05:35:46;19.93;;;13.40;;
4517;SDS011;2271;49.464;11.070;2023-12-07T05:38:13;17.50;;;12.00;;
4517;SDS011;2271;49.464;11.070;2023-12-07T05:40:38;25.33;;;13.50;;
4517;SDS011;2271;49.464;11.070;2023-12-07T05:43:04;21.87;;;13.20;;
4517;SDS011;2271;49.464;11.070;2023-12-07T05:45:29;17.30;;;12.57;;
4517;SDS011;2271;49.464;11.070;2023-12-07T05:47:55;19.10;;;12.43;;
4517;SDS011;2271;49.464;11.070;2023-12-07T05:50:21;20.10;;;13.30;;
4517;SDS011;2271;49.464;11.070;2023-12-07T05:52:47;20.17;;;12.30;;
4517;SDS011;2271;49.464;11.070;2023-12-07T05:55:12;20.43;;;12.17;;
4517;SDS011;2271;49.464;11.070;2023-12-07T05:57:38;22.37;;;13.93;;
4517;SDS011;2271;49.464;11.070;2023-12-07T06:00:06;22.33;;;13.97;;
4517;SDS011;2271;49.464;11.070;2023-12-07T06:02:34;21.10;;;12.63;;
4517;SDS011;2271;49.464;11.070;2023-12-07T06:05:00;18.37;;;13.13;;
4517;SDS011;2271;49.464;11.070;2023-12-07T06:07:29;20.43;;;12.97;;
4517;SDS011;2271;49.464;11.070;2023-12-07T06:09:54;21.07;;;13.37;;
4517;SDS011;2271;49.464;11.070;2023-12-07T06:12:20;19.87;;;13.00;;
4517;SDS011;2271;49.464;11.070;2023-12-07T06:14:47;23.83;;;13.63;;
4517;SDS011;2271;49.464;11.070;2023-12-07T06:17:15;19.47;;;13.10;;
4517;SDS011;2271;49.464;11.070;2023-12-07T06:19:41;20.63;;;13.50;;
4517;SDS011;2271;49.464;11.070;2023-12-07T06:22:07;21.27;;;12.63;;
4517;SDS011;2271;49.464;11.070;2023-12-07T06:24:33;22.33;;;13.87;;
4517;SDS011;2271;49.464;11.070;2023-12-07T06:26:59;19.87;;;13.63;;
4517;SDS011;2271;49.464;11.070;2023-12-07T06:29:26;24.30;;;14.27;;
4517;SDS011;2271;49.464;11.070;2023-12-07T06:31:52;26.67;;;15.13;;
4517;SDS011;2271;49.464;11.070;2023-12-07T06:34:18;20.57;;;13.13;;
4517;SDS011;2271;49.464;11.070;2023-12-07T06:36:44;23.63;;;13.53;;
4517;SDS011;2271;49.464;11.070;2023-12-07T06:39:10;24.60;;;14.23;;
4517;SDS011;2271;49.464;11.070;2023-12-07T06:41:36;27.77;;;15.00;;
4517;SDS011;2271;49.464;11.070;2023-12-07T06:44:01;24.10;;;14.47;;
4517;SDS011;2271;49.464;11.070;2023-12-07T06:46:27;23.83;;;14.20;;
4517;SDS011;2271;49.464;11.070;2023-12-07T06:48:52;25.47;;;14.97;;
4517;SDS011;2271;49.464;11.070;2023-12-07T06:51:18;25.90;;;15.53;;
4517;SDS011;2271;49.464;11.070;2023-12-07T06:53:44;22.83;;;14.70;;
4517;SDS011;2271;49.464;11.070;2023-12-07T06:56:09;21.20;;;14.63;;
4517;SDS011;2271;49.464;11.070;2023-12-07T06:58:35;25.73;;;15.43;;
4517;SDS011;2271;49.464;11.070;2023-12-07T07:01:00;27.60;;;17.07;;
4517;SDS011;2271;49.464;11.070;2023-12-07T07:03:26;27.33;;;15.13;;
4517;SDS011;2271;49.464;11.070;2023-12-07T07:05:52;21.93;;;13.97;;
4517;SDS011;2271;49.464;11.070;2023-12-07T07:08:19;24.20;;;15.73;;
4517;SDS011;2271;49.464;11.070;2023-12-07T07:10:45;26.63;;;14.63;;
4517;SDS011;2271;49.464;11.070;2023-12-07T07:13:12;25.87;;;15.70;;
4517;SDS011;2271;49.464;11.070;2023-12-07T07:15:41;24.17;;;14.30;;
4517;SDS011;2271;49.464;11.070;2023-12-07T07:18:12;23.80;;;14.60;;
4517;SDS011;2271;49.464;11.070;2023-12-07T07:20:38;26.23;;;16.17;;
4517;SDS011;2271;49.464;11.070;2023-12-07T07:23:04;21.50;;;14.47;;
4517;SDS011;2271;49.464;11.070;2023-12-07T07:25:30;25.30;;;15.63;;
4517;SDS011;2271;49.464;11.070;2023-12-07T07:27:56;24.57;;;15.10;;
4517;SDS011;2271;49.464;11.070;2023-12-07T07:30:21;23.90;;;15.17;;
4517;SDS011;2271;49.464;11.070;2023-12-07T07:32:47;24.53;;;15.87;;
4517;SDS011;2271;49.464;11.070;2023-12-07T07:35:13;24.53;;;15.70;;
4517;SDS011;2271;49.464;11.070;2023-12-07T07:37:39;24.73;;;15.33;;
4517;SDS011;2271;49.464;11.070;2023-12-07T07:40:06;23.10;;;16.03;;
4517;SDS011;2271;49.464;11.070;2023-12-07T07:42:33;24.50;;;15.13;;
4517;SDS011;2271;49.464;11.070;2023-12-07T07:44:59;27.43;;;16.60;;
4517;SDS011;2271;49.464;11.070;2023-12-07T07:47:24;22.97;;;15.07;;
4517;SDS011;2271;49.464;11.070;2023-12-07T07:49:50;36.73;;;17.00;;
4517;SDS011;2271;49.464;11.070;2023-12-07T07:52:16;24.53;;;15.13;;
4517;SDS011;2271;49.464;11.070;2023-12-07T07:54:42;21.27;;;14.43;;
4517;SDS011;2271;49.464;11.070;2023-12-07T07:57:08;25.83;;;13.93;;
4517;SDS011;2271;49.464;11.070;2023-12-07T07:59:33;25.50;;;14.77;;
4517;SDS011;2271;49.464;11.070;2023-12-07T08:01:59;23.77;;;14.57;;
4517;SDS011;2271;49.464;11.070;2023-12-07T08:04:24;24.27;;;14.67;;
4517;SDS011;2271;49.464;11.070;2023-12-07T08:06:50;24.13;;;14.47;;
4517;SDS011;2271;49.464;11.070;2023-12-07T08:09:16;29.83;;;15.07;;
4517;SDS011;2271;49.464;11.070;2023-12-07T08:11:41;28.97;;;16.37;;
4517;SDS011;2271;49.464;11.070;2023-12-07T08:14:07;28.73;;;15.63;;
4517;SDS011;2271;49.464;11.070;2023-12-07T08:16:33;22.03;;;15.60;;
4517;SDS011;2271;49.464;11.070;2023-12-07T08:18:59;23.50;;;14.93;;
4517;SDS011;2271;49.464;11.070;2023-12-07T08:21:25;23.37;;;14.57;;
4517;SDS011;2271;49.464;11.070;2023-12-07T08:23:51;24.53;;;14.13;;
4517;SDS011;2271;49.464;11.070;2023-12-07T08:26:16;27.70;;;14.23;;
4517;SDS011;2271;49.464;11.070;2023-12-07T08:28:43;27.17;;;14.93;;
4517;SDS011;2271;49.464;11.070;2023-12-07T08:31:11;24.60;;;14.47;;
4517;SDS011;2271;49.464;11.070;2023-12-07T08:33:37;31.67;;;15.33;;
4517;SDS011;2271;49.464;11.070;2023-12-07T08:36:04;28.50;;;14.63;;
4517;SDS011;2271;49.464;11.070;2023-12-07T08:38:31;25.83;;;16.13;;
4517;SDS011;2271;49.464;11.070;2023-12-07T08:40:57;26.90;;;15.80;;
4517;SDS011;2271;49.464;11.070;2023-12-07T08:43:23;25.33;;;16.03;;
4517;SDS011;2271;49.464;11.070;2023-12-07T08:45:52;23.03;;;14.70;;
4517;SDS011;2271;49.464;11.070;2023-12-07T08:48:18;25.40;;;15.57;;
4517;SDS011;2271;49.464;11.070;2023-12-07T08:50:44;26.63;;;15.07;;
4517;SDS011;2271;49.464;11.070;2023-12-07T08:53:10;25.20;;;14.70;;
4517;SDS011;2271;49.464;11.070;2023-12-07T08:55:36;28.83;;;15.40;;
4517;SDS011;2271;49.464;11.070;2023-12-07T08:58:01;24.73;;;16.17;;
4517;SDS011;2271;49.464;11.070;2023-12-07T09:00:30;26.00;;;16.97;;
4517;SDS011;2271;49.464;11.070;2023-12-07T09:02:56;23.83;;;15.17;;
4517;SDS011;2271;49.464;11.070;2023-12-07T09:05:22;23.40;;;15.67;;
4517;SDS011;2271;49.464;11.070;2023-12-07T09:07:47;26.73;;;16.97;;
4517;SDS011;2271;49.464;11.070;2023-12-07T09:10:13;27.37;;;16.23;;
4517;SDS011;2271;49.464;11.070;2023-12-07T09:12:39;26.33;;;16.37;;
4517;SDS011;2271;49.464;11.070;2023-12-07T09:15:05;24.67;;;15.97;;
4517;SDS011;2271;49.464;11.070;2023-12-07T09:17:35;33.13;;;15.43;;
4517;SDS011;2271;49.464;11.070;2023-12-07T09:20:03;34.40;;;19.30;;
4517;SDS011;2271;49.464;11.070;2023-12-07T09:22:30;28.23;;;17.00;;
4517;SDS011;2271;49.464;11.070;2023-12-07T09:24:55;22.63;;;14.37;;
4517;SDS011;2271;49.464;11.070;2023-12-07T09:27:21;26.73;;;15.80;;
4517;SDS011;2271;49.464;11.070;2023-12-07T09:29:48;24.60;;;14.97;;
4517;SDS011;2271;49.464;11.070;2023-12-07T09:32:13;30.03;;;15.90;;
4517;SDS011;2271;49.464;11.070;2023-12-07T09:34:39;26.47;;;16.73;;
4517;SDS011;2271;49.464;11.070;2023-12-07T09:37:06;26.27;;;16.43;;
4517;SDS011;2271;49.464;11.070;2023-12-07T09:39:32;23.93;;;15.13;;
4517;SDS011;2271;49.464;11.070;2023-12-07T09:41:57;25.57;;;16.17;;
4517;SDS011;2271;49.464;11.070;2023-12-07T09:44:23;25.17;;;16.23;;
4517;SDS011;2271;49.464;11.070;2023-12-07T09:46:49;27.17;;;16.37;;
4517;SDS011;2271;49.464;11.070;2023-12-07T09:49:15;24.87;;;15.37;;
4517;SDS011;2271;49.464;11.070;2023-12-07T09:51:42;25.80;;;16.37;;
4517;SDS011;2271;49.464;11.070;2023-12-07T09:54:09;22.47;;;15.50;;
4517;SDS011;2271;49.464;11.070;2023-12-07T09:56:35;24.30;;;14.80;;
4517;SDS011;2271;49.464;11.070;2023-12-07T09:59:01;22.33;;;15.10;;
4517;SDS011;2271;49.464;11.070;2023-12-07T10:01:30;23.77;;;14.80;;
4517;SDS011;2271;49.464;11.070;2023-12-07T10:04:15;26.10;;;14.27;;
4517;SDS011;2271;49.464;11.070;2023-12-07T10:06:44;22.97;;;14.40;;
4517;SDS011;2271;49.464;11.070;2023-12-07T10:09:10;19.17;;;12.73;;
4517;SDS011;2271;49.464;11.070;2023-12-07T10:11:37;24.90;;;13.73;;
4517;SDS011;2271;49.464;11.070;2023-12-07T10:14:04;26.27;;;14.27;;
4517;SDS011;2271;49.464;11.070;2023-12-07T10:16:32;21.67;;;14.50;;
4517;SDS011;2271;49.464;11.070;2023-12-07T10:19:12;23.07;;;15.10;;
4517;SDS011;2271;49.464;11.070;2023-12-07T10:21:47;24.70;;;15.60;;
4517;SDS011;2271;49.464;11.070;2023-12-07T10:24:17;22.07;;;14.20;;
4517;SDS011;2271;49.464;11.070;2023-12-07T10:26:44;21.50;;;13.97;;
4517;SDS011;2271;49.464;11.070;2023-12-07T10:29:11;20.37;;;13.53;;
4517;SDS011;2271;49.464;11.070;2023-12-07T10:31:37;21.23;;;14.13;;
4517;SDS011;2271;49.464;11.070;2023-12-07T10:34:03;20.73;;;14.60;;
4517;SDS011;2271;49.464;11.070;2023-12-07T10:36:30;24.30;;;14.93;;
4517;SDS011;2271;49.464;11.070;2023-12-07T10:38:55;22.53;;;13.90;;
4517;SDS011;2271;49.464;11.070;2023-12-07T10:41:23;22.93;;;15.73;;
4517;SDS011;2271;49.464;11.070;2023-12-07T10:44:01;23.70;;;14.83;;
4517;SDS011;2271;49.464;11.070;2023-12-07T10:46:31;26.03;;;14.60;;
4517;SDS011;2271;49.464;11.070;2023-12-07T10:49:00;22.13;;;14.27;;
4517;SDS011;2271;49.464;11.070;2023-12-07T10:54:39;20.73;;;13.83;;
4517;SDS011;2271;49.464;11.070;2023-12-07T10:57:14;21.90;;;13.73;;
4517;SDS011;2271;49.464;11.070;2023-12-07T10:59:41;23.17;;;13.60;;
4517;SDS011;2271;49.464;11.070;2023-12-07T11:02:08;22.70;;;13.43;;
4517;SDS011;2271;49.464;11.070;2023-12-07T11:04:37;20.73;;;13.33;;
4517;SDS011;2271;49.464;11.070;2023-12-07T11:07:08;20.97;;;13.77;;
4517;SDS011;2271;49.464;11.070;2023-12-07T11:09:40;21.33;;;13.97;;
4517;SDS011;2271;49.464;11.070;2023-12-07T11:12:16;23.70;;;14.37;;
4517;SDS011;2271;49.464;11.070;2023-12-07T11:14:57;20.17;;;13.00;;
4517;SDS011;2271;49.464;11.070;2023-12-07T11:17:23;19.20;;;13.20;;
4517;SDS011;2271;49.464;11.070;2023-12-07T11:19:49;22.57;;;14.23;;
4517;SDS011;2271;49.464;11.070;2023-12-07T11:22:14;19.57;;;13.30;;
4517;SDS011;2271;49.464;11.070;2023-12-07T11:24:56;22.23;;;14.60;;
4517;SDS011;2271;49.464;11.070;2023-12-07T11:27:25;19.93;;;13.30;;
4517;SDS011;2271;49.464;11.070;2023-12-07T11:29:54;21.87;;;13.13;;
4517;SDS011;2271;49.464;11.070;2023-12-07T11:32:23;19.37;;;13.13;;
4517;SDS011;2271;49.464;11.070;2023-12-07T11:34:48;22.10;;;13.70;;
4517;SDS011;2271;49.464;11.070;2023-12-07T11:37:14;19.73;;;14.57;;
4517;SDS011;2271;49.464;11.070;2023-12-07T11:39:42;19.53;;;12.27;;
4517;SDS011;2271;49.464;11.070;2023-12-07T11:42:10;17.57;;;12.33;;
4517;SDS011;2271;49.464;11.070;2023-12-07T11:44:38;21.97;;;14.40;;
4517;SDS011;2271;49.464;11.070;2023-12-07T11:47:05;20.43;;;13.47;;
4517;SDS011;2271;49.464;11.070;2023-12-07T11:49:31;19.47;;;13.47;;
4517;SDS011;2271;49.464;11.070;2023-12-07T11:52:01;23.57;;;14.40;;
4517;SDS011;2271;49.464;11.070;2023-12-07T11:54:38;23.03;;;13.63;;
4517;SDS011;2271;49.464;11.070;2023-12-07T11:57:03;27.13;;;17.47;;
4517;SDS011;2271;49.464;11.070;2023-12-07T11:59:29;21.97;;;14.07;;
4517;SDS011;2271;49.464;11.070;2023-12-07T12:01:55;20.77;;;14.47;;
4517;SDS011;2271;49.464;11.070;2023-12-07T12:04:24;22.27;;;13.97;;
4517;SDS011;2271;49.464;11.070;2023-12-07T12:06:50;20.43;;;13.70;;
4517;SDS011;2271;49.464;11.070;2023-12-07T12:09:15;21.73;;;13.10;;
4517;SDS011;2271;49.464;11.070;2023-12-07T12:11:44;22.43;;;14.50;;
4517;SDS011;2271;49.464;11.070;2023-12-07T12:14:12;20.53;;;13.40;;
4517;SDS011;2271;49.464;11.070;2023-12-07T12:16:42;20.80;;;14.00;;
4517;SDS011;2271;49.464;11.070;2023-12-07T12:19:09;21.90;;;13.23;;
4517;SDS011;2271;49.464;11.070;2023-12-07T12:21:38;19.40;;;13.00;;
4517;SDS011;2271;49.464;11.070;2023-12-07T12:24:07;23.13;;;14.83;;
4517;SDS011;2271;49.464;11.070;2023-12-07T12:26:36;19.23;;;12.03;;
4517;SDS011;2271;49.464;11.070;2023-12-07T12:29:04;15.27;;;11.70;;
4517;SDS011;2271;49.464;11.070;2023-12-07T12:31:32;16.57;;;10.37;;
4517;SDS011;2271;49.464;11.070;2023-12-07T12:33:57;19.43;;;11.87;;
4517;SDS011;2271;49.464;11.070;2023-12-07T12:36:27;16.10;;;9.90;;
4517;SDS011;2271;49.464;11.070;2023-12-07T12:38:53;14.47;;;10.90;;
4517;SDS011;2271;49.464;11.070;2023-12-07T12:41:21;16.30;;;9.93;;
4517;SDS011;2271;49.464;11.070;2023-12-07T12:43:47;16.90;;;10.57;;
4517;SDS011;2271;49.464;11.070;2023-12-07T12:46:13;15.37;;;10.00;;
4517;SDS011;2271;49.464;11.070;2023-12-07T12:48:57;14.13;;;10.67;;
4517;SDS011;2271;49.464;11.070;2023-12-07T12:51:26;14.57;;;9.97;;
4517;SDS011;2271;49.464;11.070;2023-12-07T12:53:54;15.97;;;9.10;;
4517;SDS011;2271;49.464;11.070;2023-12-07T12:56:21;13.03;;;9.30;;
4517;SDS011;2271;49.464;11.070;2023-12-07T12:58:51;14.80;;;9.30;;
4517;SDS011;2271;49.464;11.070;2023-12-07T13:01:17;17.27;;;10.63;;
4517;SDS011;2271;49.464;11.070;2023-12-07T13:03:46;20.37;;;11.23;;
4517;SDS011;2271;49.464;11.070;2023-12-07T13:06:13;16.60;;;11.23;;
4517;SDS011;2271;49.464;11.070;2023-12-07T13:08:46;12.90;;;9.10;;
4517;SDS011;2271;49.464;11.070;2023-12-07T13:11:18;15.73;;;9.77;;
4517;SDS011;2271;49.464;11.070;2023-12-07T13:13:45;13.27;;;9.13;;
4517;SDS011;2271;49.464;11.070;2023-12-07T13:16:14;15.97;;;10.30;;
4517;SDS011;2271;49.464;11.070;2023-12-07T13:18:41;13.03;;;9.63;;
4517;SDS011;2271;49.464;11.070;2023-12-07T13:21:07;20.43;;;9.20;;
4517;SDS011;2271;49.464;11.070;2023-12-07T13:23:35;17.33;;;9.90;;
4517;SDS011;2271;49.464;11.070;2023-12-07T13:26:00;13.70;;;8.37;;
4517;SDS011;2271;49.464;11.070;2023-12-07T13:28:26;10.90;;;6.80;;
4517;SDS011;2271;49.464;11.070;2023-12-07T13:30:52;13.07;;;8.47;;
4517;SDS011;2271;49.464;11.070;2023-12-07T13:33:19;10.07;;;7.47;;
4517;SDS011;2271;49.464;11.070;2023-12-07T13:35:44;11.90;;;7.80;;
4517;SDS011;2271;49.464;11.070;2023-12-07T13:38:10;11.70;;;6.97;;
4517;SDS011;2271;49.464;11.070;2023-12-07T13:40:36;9.97;;;7.67;;
4517;SDS011;2271;49.464;11.070;2023-12-07T13:43:02;10.63;;;7.43;;
4517;SDS011;2271;49.464;11.070;2023-12-07T13:45:28;12.43;;;8.50;;
4517;SDS011;2271;49.464;11.070;2023-12-07T13:47:54;25.83;;;12.10;;
4517;SDS011;2271;49.464;11.070;2023-12-07T13:50:19;12.90;;;9.63;;
4517;SDS011;2271;49.464;11.070;2023-12-07T13:52:45;11.57;;;8.80;;
4517;SDS011;2271;49.464;11.070;2023-12-07T13:55:10;12.70;;;8.17;;
4517;SDS011;2271;49.464;11.070;2023-12-07T13:57:36;11.00;;;9.33;;
4517;SDS011;2271;49.464;11.070;2023-12-07T14:00:02;12.17;;;8.60;;
4517;SDS011;2271;49.464;11.070;2023-12-07T14:02:28;13.07;;;8.00;;
4517;SDS011;2271;49.464;11.070;2023-12-07T14:04:53;13.17;;;9.03;;
4517;SDS011;2271;49.464;11.070;2023-12-07T14:07:21;17.57;;;9.83;;
4517;SDS011;2271;49.464;11.070;2023-12-07T14:09:48;12.77;;;7.80;;
4517;SDS011;2271;49.464;11.070;2023-12-07T14:12:15;10.83;;;8.40;;
4517;SDS011;2271;49.464;11.070;2023-12-07T14:14:41;9.07;;;7.37;;
4517;SDS011;2271;49.464;11.070;2023-12-07T14:17:09;15.57;;;8.57;;
4517;SDS011;2271;49.464;11.070;2023-12-07T14:19:35;13.63;;;8.07;;
4517;SDS011;2271;49.464;11.070;2023-12-07T14:22:01;12.60;;;9.10;;
4517;SDS011;2271;49.464;11.070;2023-12-07T14:24:27;10.63;;;8.57;;
4517;SDS011;2271;49.464;11.070;2023-12-07T14:26:53;13.17;;;9.07;;
4517;SDS011;2271;49.464;11.070;2023-12-07T14:29:19;13.10;;;8.60;;
4517;SDS011;2271;49.464;11.070;2023-12-07T14:31:46;11.47;;;7.53;;
4517;SDS011;2271;49.464;11.070;2023-12-07T14:34:13;17.70;;;8.33;;
4517;SDS011;2271;49.464;11.070;2023-12-07T14:36:40;10.83;;;8.10;;
4517;SDS011;2271;49.464;11.070;2023-12-07T14:39:06;12.50;;;8.30;;
4517;SDS011;2271;49.464;11.070;2023-12-07T14:41:33;13.87;;;9.07;;